Time;durP1;ratioP1;P1;durP2;ratioP2;P2;SDS_P1;SDS_P2;PMS_P1;PMS_P2;Temp;Humidity;BMP_temperature;BMP_pressure;BME280_temperature;BME280_humidity;BME280_pressure;Samples;Min_cycle;Max_cycle;Signal;HPM_P1;HPM_P2
2022/04/25 00:01:21;;;;;;;;;;;;;;;14.28;55.45;98742.63;4384149;32;19990;-86
2022/04/25 00:03:48;;;;;;;;;;;;;;;14.45;54.14;98744.06;4385463;32;19978;-82
2022/04/25 00:06:15;;;;;;;;;;;;;;;14.06;55.25;98743.84;4385415;32;19983;-84
2022/04/25 00:08:42;;;;;;;;;;;;;;;14.17;55.06;98744.56;4385396;32;20036;-83
2022/04/25 00:11:09;;;;;;;;;;;;;;;14.28;54.36;98741.78;4383640;32;20032;-85
2022/04/25 00:13:36;;;;;;;;;;;;;;;14.14;54.93;98745.47;4385626;32;20081;-84
2022/04/25 00:16:03;;;;;;;;;;;;;;;14.15;54.94;98748.91;4385201;32;20686;-87
2022/04/25 00:18:30;;;;;;;;;;;;;;;13.99;55.71;98744.84;4385143;32;19972;-85
2022/04/25 00:20:57;;;;;;;;;;;;;;;14.21;55.17;98740.16;4385169;32;19978;-80
2022/04/25 00:23:24;;;;;;;;;;;;;;;14.22;54.90;98742.72;4385000;32;20043;-85
2022/04/25 00:25:51;;;;;;;;;;;;;;;14.12;55.16;98746.38;4384590;32;19974;-85
2022/04/25 00:28:19;;;;;;;;;;;;;;;14.14;54.61;98739.41;4385002;32;20005;-85
2022/04/25 00:30:47;;;;;;;;;;;;;;;14.08;54.98;98734.28;4384883;32;19979;-84
2022/04/25 00:33:15;;;;;;;;;;;;;;;14.23;53.96;98734.06;4384385;32;20485;-84
2022/04/25 00:35:42;;;;;;;;;;;;;;;13.88;54.67;98738.06;4386665;32;20296;-86
2022/04/25 00:38:09;;;;;;;;;;;;;;;13.96;54.75;98730.97;4381508;32;20021;-85
2022/04/25 00:40:36;;;;;;;;;;;;;;;13.87;55.02;98731.13;4382983;32;20012;-85
2022/04/25 00:43:03;;;;;;;;;;;;;;;13.95;54.29;98734.47;4384845;32;20053;-88
2022/04/25 00:45:33;;;;;;;;;;;;;;;13.81;54.62;98730.34;4384410;32;20051;-86
2022/04/25 00:48:01;;;;;;;;;;;;;;;13.93;54.47;98736.22;4383601;32;20507;-84
2022/04/25 00:50:28;;;;;;;;;;;;;;;13.89;54.59;98728.50;4382990;32;20070;-85
2022/04/25 00:52:55;;;;;;;;;;;;;;;13.88;54.70;98729.38;4384927;32;20151;-84
2022/04/25 00:55:22;;;;;;;;;;;;;;;13.80;55.26;98729.50;4383916;32;20025;-85
2022/04/25 00:57:50;;;;;;;;;;;;;;;13.70;55.57;98739.19;4384287;32;19997;-85
2022/04/25 01:00:17;;;;;;;;;;;;;;;13.76;55.42;98738.25;4386615;32;20377;-84
2022/04/25 01:02:44;;;;;;;;;;;;;;;13.74;55.66;98740.00;4386338;32;19978;-83
2022/04/25 01:05:11;;;;;;;;;;;;;;;13.80;55.43;98739.06;4386525;32;19974;-84
2022/04/25 01:07:38;;;;;;;;;;;;;;;13.72;55.47;98746.97;4386758;32;19975;-86
2022/04/25 01:10:06;;;;;;;;;;;;;;;13.72;55.59;98746.97;4385213;32;20030;-85
2022/04/25 01:12:33;;;;;;;;;;;;;;;13.72;56.14;98746.97;4383793;32;20040;-83
2022/04/25 01:15:01;;;;;;;;;;;;;;;13.41;57.38;98749.97;4387331;32;20018;-87
2022/04/25 01:17:28;;;;;;;;;;;;;;;13.58;56.93;98743.69;4386683;32;20034;-87
2022/04/25 01:19:55;;;;;;;;;;;;;;;13.63;56.79;98750.56;4385748;32;20326;-84
2022/04/25 01:22:42;;;;;;;;;;;;;;;13.58;57.18;98751.50;4382719;32;20021;-85
2022/04/25 01:27:54;;;;;;;;;;;;;;;13.52;57.92;98743.78;4386576;32;19978;-85
2022/04/25 01:30:21;;;;;;;;;;;;;;;13.78;57.02;98751.22;4386513;32;20430;-85
2022/04/25 01:32:48;;;;;;;;;;;;;;;13.88;56.85;98748.47;4386467;32;19994;-87
2022/04/25 01:35:15;;;;;;;;;;;;;;;13.92;56.80;98744.06;4386211;32;19982;-87
2022/04/25 01:37:42;;;;;;;;;;;;;;;13.90;57.17;98751.87;4389510;32;20002;-82
2022/04/25 01:40:09;;;;;;;;;;;;;;;13.96;57.01;98746.59;4386331;32;20006;-84
2022/04/25 01:42:36;;;;;;;;;;;;;;;13.95;57.05;98747.50;4384510;32;20042;-86
2022/04/25 01:45:04;;;;;;;;;;;;;;;14.07;56.91;98738.66;4386142;32;19999;-86
2022/04/25 01:47:30;;;;;;;;;;;;;;;14.03;57.22;98736.09;4386373;32;19990;-82
2022/04/25 01:49:57;;;;;;;;;;;;;;;14.08;57.17;98739.50;4386421;32;19982;-85
2022/04/25 01:52:27;;;;;;;;;;;;;;;14.19;56.79;98740.16;4385757;32;20032;-84
2022/04/25 01:54:54;;;;;;;;;;;;;;;14.19;56.83;98733.22;4382274;32;20325;-85
2022/04/25 01:57:21;;;;;;;;;;;;;;;14.33;55.98;98735.59;4382298;32;19993;-79
2022/04/25 01:59:49;;;;;;;;;;;;;;;14.36;56.33;98738.16;4371219;32;19978;-81
2022/04/25 02:02:16;;;;;;;;;;;;;;;14.39;56.09;98735.50;4371247;32;19997;-87
2022/04/25 02:04:43;;;;;;;;;;;;;;;14.27;56.71;98730.50;4371010;32;19979;-85
2022/04/25 02:07:10;;;;;;;;;;;;;;;14.36;56.66;98725.16;4370875;32;20042;-85
2022/04/25 02:09:37;;;;;;;;;;;;;;;14.40;56.66;98721.59;4371351;32;19978;-85
2022/04/25 02:12:05;;;;;;;;;;;;;;;14.44;56.63;98732.81;4376710;32;19978;-85
2022/04/25 02:14:32;;;;;;;;;;;;;;;14.58;56.30;98729.97;4386473;32;19989;-83
2022/04/25 02:16:59;;;;;;;;;;;;;;;14.60;56.21;98723.00;4383306;32;19987;-86
2022/04/25 02:19:27;;;;;;;;;;;;;;;14.49;56.53;98719.72;4386576;32;20699;-84
2022/04/25 02:21:54;;;;;;;;;;;;;;;14.55;56.41;98719.63;4385892;32;20004;-84
2022/04/25 02:24:21;;;;;;;;;;;;;;;14.51;56.57;98723.19;4384686;32;20054;-85
2022/04/25 02:26:48;;;;;;;;;;;;;;;14.63;56.23;98723.81;4386546;32;20130;-86
2022/04/25 02:29:15;;;;;;;;;;;;;;;14.68;55.80;98717.66;4386187;32;19996;-87
2022/04/25 02:31:42;;;;;;;;;;;;;;;14.78;55.52;98722.69;4385787;32;19989;-85
2022/04/25 02:34:09;;;;;;;;;;;;;;;14.87;55.36;98726.88;4386196;32;19979;-86
2022/04/25 02:36:36;;;;;;;;;;;;;;;14.75;55.61;98737.50;4386191;32;19978;-85
2022/04/25 02:39:03;;;;;;;;;;;;;;;14.85;54.57;98739.91;4385887;32;19979;-86
2022/04/25 02:41:30;;;;;;;;;;;;;;;14.38;55.28;98754.59;4385357;32;19979;-86
2022/04/25 02:43:57;;;;;;;;;;;;;;;14.46;54.07;98751.87;4385995;32;20081;-86
2022/04/25 02:46:24;;;;;;;;;;;;;;;14.61;54.26;98755.97;4386117;32;19975;-85
2022/04/25 02:48:51;;;;;;;;;;;;;;;14.64;53.68;98746.38;4385417;32;20081;-85
2022/04/25 02:51:18;;;;;;;;;;;;;;;14.81;53.33;98753.03;4385266;32;19978;-85
2022/04/25 02:53:45;;;;;;;;;;;;;;;14.78;53.11;98774.78;4386572;32;19982;-84
2022/04/25 02:56:12;;;;;;;;;;;;;;;14.24;53.95;98776.56;4386032;32;19974;-85
2022/04/25 02:58:38;;;;;;;;;;;;;;;14.57;53.80;98780.38;4385811;32;19982;-89
2022/04/25 03:01:06;;;;;;;;;;;;;;;14.66;53.15;98780.22;4385711;32;19996;-87
2022/04/25 03:03:34;;;;;;;;;;;;;;;14.68;53.04;98783.66;4384747;32;20234;-87
2022/04/25 03:06:06;;;;;;;;;;;;;;;15.02;52.55;98798.66;4384991;32;20037;-82
2022/04/25 03:08:34;;;;;;;;;;;;;;;15.08;52.32;98799.41;4385523;32;20125;-85
2022/04/25 03:11:05;;;;;;;;;;;;;;;15.19;52.36;98790.50;4364869;32;19997;-84
2022/04/25 03:13:34;;;;;;;;;;;;;;;15.32;51.45;98800.69;4385526;32;19997;-84
2022/04/25 03:16:02;;;;;;;;;;;;;;;15.43;51.94;98799.59;4384895;32;19986;-85
2022/04/25 03:18:29;;;;;;;;;;;;;;;15.50;52.40;98806.41;4384944;32;20865;-84
2022/04/25 03:20:56;;;;;;;;;;;;;;;15.49;52.71;98809.91;4385996;32;19996;-83
2022/04/25 03:23:23;;;;;;;;;;;;;;;15.49;52.10;98809.91;4384934;32;19978;-85
2022/04/25 03:25:50;;;;;;;;;;;;;;;15.62;51.93;98800.09;4385979;32;19998;-88
2022/04/25 03:28:17;;;;;;;;;;;;;;;14.99;51.54;98798.72;4386008;32;20033;-86
2022/04/25 03:30:44;;;;;;;;;;;;;;;15.14;51.14;98797.56;4385769;32;20429;-86
2022/04/25 03:33:11;;;;;;;;;;;;;;;15.11;51.66;98803.69;4331087;32;20069;-85
2022/04/25 03:35:38;;;;;;;;;;;;;;;15.21;51.62;98807.00;4399294;32;20309;-83
2022/04/25 03:38:06;;;;;;;;;;;;;;;15.42;51.38;98805.72;4400930;32;19986;-86
2022/04/25 03:40:36;;;;;;;;;;;;;;;15.54;51.68;98806.34;4399096;32;20004;-86
2022/04/25 03:43:05;;;;;;;;;;;;;;;15.59;51.44;98806.22;4401060;32;19978;-87
2022/04/25 03:45:32;;;;;;;;;;;;;;;15.19;51.92;98801.81;4400759;32;19986;-87
2022/04/25 03:47:59;;;;;;;;;;;;;;;15.49;51.17;98799.47;4401439;32;19990;-85
2022/04/25 03:50:26;;;;;;;;;;;;;;;15.56;51.57;98801.06;4399881;32;19986;-87
2022/04/25 03:52:53;;;;;;;;;;;;;;;15.48;51.20;98795.16;4399544;32;19966;-87
2022/04/25 03:58:06;;;;;;;;;;;;;;;15.56;51.25;98795.84;4400911;32;20307;-87
2022/04/25 04:00:33;;;;;;;;;;;;;;;15.67;50.43;98793.91;4399962;32;19994;-87
2022/04/25 04:03:00;;;;;;;;;;;;;;;15.65;51.03;98795.66;4400677;32;20057;-84
2022/04/25 04:05:27;;;;;;;;;;;;;;;15.52;50.90;98796.81;4399687;32;19994;-85
2022/04/25 04:07:55;;;;;;;;;;;;;;;15.58;50.38;98804.50;4399150;32;20049;-87
2022/04/25 04:10:22;;;;;;;;;;;;;;;15.48;50.82;98809.06;4399674;32;20761;-85
2022/04/25 04:12:49;;;;;;;;;;;;;;;15.44;50.23;98806.53;4403295;32;20045;-86
2022/04/25 04:15:16;;;;;;;;;;;;;;;15.62;50.43;98824.41;4400820;32;19996;-86
2022/04/25 04:17:43;;;;;;;;;;;;;;;15.64;51.59;98820.03;4399164;32;19994;-83
2022/04/25 04:20:13;;;;;;;;;;;;;;;15.64;51.59;98813.97;4400457;32;20386;-86
2022/04/25 04:22:40;;;;;;;;;;;;;;;15.72;51.60;98818.16;4399719;32;19986;-86
2022/04/25 04:25:14;;;;;;;;;;;;;;;15.73;51.69;98814.66;4400097;32;20622;-83
2022/04/25 04:27:41;;;;;;;;;;;;;;;15.68;50.97;98826.94;4398778;32;20036;-87
2022/04/25 04:30:09;;;;;;;;;;;;;;;15.74;51.77;98818.97;4399063;32;20477;-87
2022/04/25 04:32:38;;;;;;;;;;;;;;;15.78;52.05;98812.78;4401099;32;19966;-86
2022/04/25 04:35:06;;;;;;;;;;;;;;;15.73;52.02;98819.87;4402418;32;20196;-89
2022/04/25 04:37:33;;;;;;;;;;;;;;;15.89;51.81;98825.63;4402268;32;20027;-87
2022/04/25 04:42:46;;;;;;;;;;;;;;;15.80;52.46;98821.47;4400635;32;19966;-89
2022/04/25 04:45:13;;;;;;;;;;;;;;;15.71;52.85;98826.87;4400619;32;20045;-85
2022/04/25 04:47:40;;;;;;;;;;;;;;;15.75;52.38;98828.50;4401153;32;20057;-89
2022/04/25 04:50:08;;;;;;;;;;;;;;;15.80;52.31;98821.47;4405746;32;19986;-90
2022/04/25 04:52:34;;;;;;;;;;;;;;;15.84;52.04;98831.84;4402283;32;19992;-87
2022/04/25 04:55:01;;;;;;;;;;;;;;;15.88;52.72;98838.69;4401557;32;20353;-90
2022/04/25 04:57:28;;;;;;;;;;;;;;;15.83;52.72;98830.13;4401882;32;20024;-89
2022/04/25 04:59:55;;;;;;;;;;;;;;;15.95;52.65;98835.06;4402002;32;20433;-91
2022/04/25 05:02:22;;;;;;;;;;;;;;;15.79;53.52;98840.63;4399958;32;20055;-89
2022/04/25 05:04:50;;;;;;;;;;;;;;;16.00;53.61;98854.09;4400528;32;20004;-88
2022/04/25 05:07:17;;;;;;;;;;;;;;;16.00;53.40;98843.66;4401372;32;20447;-91
2022/04/25 05:09:44;;;;;;;;;;;;;;;16.04;52.34;98840.06;4400514;32;19986;-90
2022/04/25 05:12:11;;;;;;;;;;;;;;;16.01;52.76;98841.00;4400452;32;19989;-90
2022/04/25 05:14:38;;;;;;;;;;;;;;;16.07;52.51;98840.00;4401114;32;20000;-88
2022/04/25 05:17:05;;;;;;;;;;;;;;;16.22;52.46;98842.28;4401648;32;20020;-85
2022/04/25 05:19:32;;;;;;;;;;;;;;;16.23;52.33;98856.19;4401889;32;19997;-86
2022/04/25 05:21:59;;;;;;;;;;;;;;;16.18;52.72;98847.63;4401774;32;19985;-88
2022/04/25 05:24:26;;;;;;;;;;;;;;;16.27;51.59;98845.66;4399047;32;20234;-84
2022/04/25 05:26:53;;;;;;;;;;;;;;;16.35;50.98;98847.22;4391159;32;19978;-87
2022/04/25 05:29:20;;;;;;;;;;;;;;;16.30;51.83;98846.47;4400303;32;20025;-87
2022/04/25 05:31:49;;;;;;;;;;;;;;;16.37;51.96;98851.53;4400863;32;20334;-88
2022/04/25 05:34:28;;;;;;;;;;;;;;;16.36;52.00;98851.53;4401065;32;19987;-89
2022/04/25 05:36:54;;;;;;;;;;;;;;;16.39;50.41;98846.25;4401625;32;20021;-90
2022/04/25 05:39:21;;;;;;;;;;;;;;;15.63;52.94;98852.22;4401838;32;19982;-86
2022/04/25 05:41:48;;;;;;;;;;;;;;;16.14;51.44;98857.25;4401352;32;19982;-88
2022/04/25 05:44:15;;;;;;;;;;;;;;;16.09;51.96;98855.66;4401913;32;19983;-88
2022/04/25 05:46:43;;;;;;;;;;;;;;;15.90;51.41;98852.59;4400767;32;19982;-88
2022/04/25 05:52:03;;;;;;;;;;;;;;;15.89;51.70;98861.28;4394889;32;20008;-90
2022/04/25 05:54:30;;;;;;;;;;;;;;;16.06;51.62;98866.16;4400814;32;19997;-94
2022/04/25 05:56:57;;;;;;;;;;;;;;;15.84;51.89;98868.38;4397139;32;20338;-87
2022/04/25 05:59:25;;;;;;;;;;;;;;;15.06;54.26;98862.88;4394014;32;20349;-88
2022/04/25 06:01:53;;;;;;;;;;;;;;;15.43;53.13;98863.06;4398244;32;19986;-87
2022/04/25 06:04:21;;;;;;;;;;;;;;;15.35;53.48;98860.59;4395082;32;19991;-88
2022/04/25 06:06:54;;;;;;;;;;;;;;;14.78;55.19;98862.50;4386425;32;19986;-89
2022/04/25 06:09:25;;;;;;;;;;;;;;;14.87;54.56;98868.41;4401919;32;20030;-90
2022/04/25 06:11:53;;;;;;;;;;;;;;;14.35;56.32;98864.00;4400388;32;19974;-88
2022/04/25 06:14:21;;;;;;;;;;;;;;;14.45;55.94;98869.06;4394416;32;20450;-88
2022/04/25 06:16:48;;;;;;;;;;;;;;;14.68;55.58;98861.81;4402315;32;19962;-88
2022/04/25 06:19:15;;;;;;;;;;;;;;;15.07;54.88;98862.00;4402025;32;19981;-88
2022/04/25 06:21:45;;;;;;;;;;;;;;;15.11;54.29;98851.47;4400706;32;20346;-86
2022/04/25 06:24:12;;;;;;;;;;;;;;;15.39;53.51;98857.94;4393118;32;19992;-86
2022/04/25 06:26:39;;;;;;;;;;;;;;;15.50;53.50;98863.78;4398840;32;20721;-81
2022/04/25 06:29:06;;;;;;;;;;;;;;;15.93;51.46;98860.34;4388240;32;19998;-86
2022/04/25 06:31:33;;;;;;;;;;;;;;;16.06;51.42;98859.19;4400918;32;19994;-85
2022/04/25 06:34:00;;;;;;;;;;;;;;;16.29;50.82;98856.06;4400394;32;20034;-88
2022/04/25 06:36:27;;;;;;;;;;;;;;;16.66;50.17;98865.66;4401038;32;19982;-85
2022/04/25 06:38:58;;;;;;;;;;;;;;;17.24;48.71;98863.34;4404765;32;19982;-84
2022/04/25 06:41:24;;;;;;;;;;;;;;;16.87;48.89;98866.88;4398719;32;19997;-86
2022/04/25 06:43:51;;;;;;;;;;;;;;;17.41;48.63;98866.34;4399846;32;19990;-86
2022/04/25 06:46:18;;;;;;;;;;;;;;;16.99;48.63;98874.44;4390816;32;20049;-82
2022/04/25 06:49:19;;;;;;;;;;;;;;;17.94;46.96;98871.00;4385681;32;20025;-86
2022/04/25 06:51:33;;;;;;;;;;;;;;;18.27;46.14;98871.75;4385965;32;19971;-84
2022/04/25 06:54:00;;;;;;;;;;;;;;;18.43;45.95;98870.34;4383712;32;20043;-85
2022/04/25 06:56:27;;;;;;;;;;;;;;;18.38;45.88;98872.28;4388048;32;20037;-85
2022/04/25 06:58:54;;;;;;;;;;;;;;;18.46;45.95;98875.50;4404542;32;19978;-85
2022/04/25 07:01:21;;;;;;;;;;;;;;;18.23;46.10;98883.22;4398559;32;19986;-83
2022/04/25 07:03:48;;;;;;;;;;;;;;;18.36;46.08;98880.19;4400363;32;20029;-86
2022/04/25 07:06:17;;;;;;;;;;;;;;;19.03;45.15;98882.41;4374735;32;20005;-84
2022/04/25 07:08:43;;;;;;;;;;;;;;;18.51;44.94;98889.31;4398275;32;20020;-83
2022/04/25 07:11:10;;;;;;;;;;;;;;;19.80;42.97;98885.00;4397924;32;19970;-86
2022/04/25 07:13:41;;;;;;;;;;;;;;;20.33;40.46;98890.00;4400722;32;19978;-87
2022/04/25 07:16:09;;;;;;;;;;;;;;;20.80;40.46;98889.03;4398680;32;20053;-88
2022/04/25 07:18:36;;;;;;;;;;;;;;;20.49;41.22;98898.13;4390627;32;20004;-87
2022/04/25 07:29:20;;;;;;;;;;;;;;;20.18;44.32;98891.44;4389106;32;19986;-88
2022/04/25 07:31:47;;;;;;;;;;;;;;;21.16;40.00;98886.66;4389322;32;20020;-87
2022/04/25 07:34:14;;;;;;;;;;;;;;;21.40;39.03;98873.37;4399513;32;20305;-85
2022/04/25 07:36:41;;;;;;;;;;;;;;;21.90;38.73;98879.03;4400829;32;20003;-85
2022/04/25 07:39:08;;;;;;;;;;;;;;;21.13;40.44;98884.16;4399455;32;19990;-84
2022/04/25 07:41:34;;;;;;;;;;;;;;;21.09;39.11;98879.91;4400620;32;20016;-84
2022/04/25 07:44:01;;;;;;;;;;;;;;;21.74;38.67;98889.41;4397772;32;20009;-84
2022/04/25 07:46:29;;;;;;;;;;;;;;;22.11;38.98;98898.25;4400364;32;19987;-85
2022/04/25 07:48:55;;;;;;;;;;;;;;;21.25;38.97;98894.16;4092771;32;10004036;-87
2022/04/25 07:51:22;;;;;;;;;;;;;;;21.66;38.97;98902.06;4385294;32;19992;-85
2022/04/25 07:53:49;;;;;;;;;;;;;;;21.63;38.66;98896.06;4374444;32;20033;-85
2022/04/25 07:56:16;;;;;;;;;;;;;;;21.90;37.75;98904.53;4370100;32;20313;-89
2022/04/25 07:58:43;;;;;;;;;;;;;;;22.14;37.79;98908.66;4375084;32;19990;-85
2022/04/25 08:01:10;;;;;;;;;;;;;;;22.86;35.63;98896.50;4382713;32;20013;-87
2022/04/25 08:03:37;;;;;;;;;;;;;;;22.96;35.55;98903.06;4384276;32;20335;-87
2022/04/25 08:06:05;;;;;;;;;;;;;;;22.74;36.98;98904.06;4373612;32;19986;-85
2022/04/25 08:08:32;;;;;;;;;;;;;;;22.91;37.84;98905.03;4370081;32;20058;-88
2022/04/25 08:11:00;;;;;;;;;;;;;;;23.13;34.81;98895.16;4369158;32;20002;-88
2022/04/25 08:18:58;;;;;;;;;;;;;;;23.43;32.80;98897.16;4373564;32;20006;-87
2022/04/25 08:21:25;;;;;;;;;;;;;;;22.58;34.90;98897.84;4369916;32;19983;-88
2022/04/25 08:23:52;;;;;;;;;;;;;;;22.61;35.76;98902.97;4370135;32;19996;-87
2022/04/25 08:26:19;;;;;;;;;;;;;;;23.09;36.00;98901.50;4370588;32;19978;-84
2022/04/25 08:28:46;;;;;;;;;;;;;;;22.88;33.65;98906.06;4381160;32;20033;-90
2022/04/25 08:31:31;;;;;;;;;;;;;;;23.23;33.15;98905.25;4370992;32;19992;-85
2022/04/25 08:34:00;;;;;;;;;;;;;;;23.38;36.51;98904.47;4376393;32;20779;-89
2022/04/25 08:36:26;;;;;;;;;;;;;;;22.73;36.21;98907.66;4370078;32;20025;-88
2022/04/25 08:38:53;;;;;;;;;;;;;;;23.10;36.60;98908.53;4366435;32;20005;-86
2022/04/25 08:41:30;;;;;;;;;;;;;;;23.60;35.31;98920.91;4386623;32;19990;-88
2022/04/25 08:43:57;;;;;;;;;;;;;;;23.61;34.39;98917.34;4380829;32;19994;-88
2022/04/25 08:46:24;;;;;;;;;;;;;;;22.56;35.67;98920.81;4369919;32;20769;-84
2022/04/25 08:48:51;;;;;;;;;;;;;;;22.33;36.37;98928.94;4371626;32;20052;-86
2022/04/25 08:51:20;;;;;;;;;;;;;;;22.96;36.48;98924.19;4374522;32;19995;-81
2022/04/25 08:53:47;;;;;;;;;;;;;;;23.10;33.87;98924.38;4368901;32;20013;-88
2022/04/25 08:56:14;;;;;;;;;;;;;;;23.02;36.00;98929.16;4377516;32;20321;-85
2022/04/25 08:58:41;;;;;;;;;;;;;;;23.18;33.47;98934.53;4373267;32;19986;-89
2022/04/25 09:01:09;;;;;;;;;;;;;;;22.79;37.03;98926.78;4369973;32;20414;-84
2022/04/25 09:03:36;;;;;;;;;;;;;;;22.77;35.88;98928.63;4353821;32;19988;-87
2022/04/25 09:06:04;;;;;;;;;;;;;;;22.22;39.05;98927.66;4375640;32;19979;-85
2022/04/25 09:08:31;;;;;;;;;;;;;;;22.40;39.34;98935.63;4384498;32;20045;-88
2022/04/25 09:12:09;;;;;;;;;;;;;;;22.71;36.78;98935.88;4385079;32;19983;-86
2022/04/25 09:13:45;;;;;;;;;;;;;;;22.69;40.09;98940.41;4364881;32;20329;-86
2022/04/25 09:16:32;;;;;;;;;;;;;;;23.13;36.84;98942.69;4384750;32;19986;-84
2022/04/25 09:18:59;;;;;;;;;;;;;;;23.11;35.18;98939.25;4379982;32;20288;-85
2022/04/25 09:21:26;;;;;;;;;;;;;;;23.48;33.31;98941.81;4376320;32;19993;-90
2022/04/25 09:23:52;;;;;;;;;;;;;;;23.15;35.17;98951.38;4382159;32;20041;-86
2022/04/25 09:26:28;;;;;;;;;;;;;;;23.25;33.75;98941.19;4371606;32;20422;-85
2022/04/25 09:28:56;;;;;;;;;;;;;;;23.61;36.26;98949.06;4380388;32;20030;-92
2022/04/25 09:31:27;;;;;;;;;;;;;;;23.72;34.33;98948.53;4378465;32;20033;-82
2022/04/25 09:33:54;;;;;;;;;;;;;;;23.43;34.54;98944.72;4376433;32;19979;-82
2022/04/25 09:36:21;;;;;;;;;;;;;;;22.89;35.82;98954.41;4368517;32;19991;-88
2022/04/25 09:38:48;;;;;;;;;;;;;;;22.31;35.88;98965.09;4371066;32;20321;-89
2022/04/25 09:41:16;;;;;;;;;;;;;;;21.64;36.54;98956.59;4370640;32;20049;-88
2022/04/25 09:43:47;;;;;;;;;;;;;;;21.66;38.07;98954.72;4369345;32;19975;-84
2022/04/25 09:46:15;;;;;;;;;;;;;;;22.50;35.98;98958.03;4374529;32;19993;-91
2022/04/25 09:49:00;;;;;;;;;;;;;;;22.18;34.61;98955.09;4371856;32;19986;-85
2022/04/25 09:51:27;;;;;;;;;;;;;;;22.45;36.43;98970.56;4395504;32;20040;-84
2022/04/25 09:53:54;;;;;;;;;;;;;;;23.04;32.75;98964.25;4386584;32;20473;-85
2022/04/25 09:56:22;;;;;;;;;;;;;;;22.13;36.25;98975.50;4409421;32;19982;-88
2022/04/25 09:59:02;;;;;;;;;;;;;;;22.37;34.84;98970.09;4398419;32;20638;-85
2022/04/25 10:01:30;;;;;;;;;;;;;;;22.34;36.35;98973.72;4394108;32;19990;-86
2022/04/25 10:03:57;;;;;;;;;;;;;;;22.63;35.80;98976.78;4371983;32;19995;-84
2022/04/25 10:06:24;;;;;;;;;;;;;;;22.77;34.38;98976.09;4355134;32;19987;-86
2022/04/25 10:08:52;;;;;;;;;;;;;;;22.50;35.40;98974.72;4352548;32;20066;-86
2022/04/25 10:11:19;;;;;;;;;;;;;;;22.79;36.33;98984.81;4355579;32;20005;-85
2022/04/25 10:13:46;;;;;;;;;;;;;;;22.34;36.73;98980.78;4356330;32;19979;-84
2022/04/25 10:16:13;;;;;;;;;;;;;;;22.41;35.41;98979.56;4367104;32;20294;-84
2022/04/25 10:18:40;;;;;;;;;;;;;;;23.07;32.93;98974.69;4360118;32;20027;-82
2022/04/25 10:21:07;;;;;;;;;;;;;;;22.86;35.53;98991.50;4392118;32;20025;-86
2022/04/25 10:23:34;;;;;;;;;;;;;;;22.90;34.27;98979.87;4414484;32;19989;-82
2022/04/25 10:26:02;;;;;;;;;;;;;;;23.14;33.20;98986.63;4416528;32;19993;-86
2022/04/25 10:28:33;;;;;;;;;;;;;;;22.21;36.49;98981.31;4410130;32;20350;-85
2022/04/25 10:31:05;;;;;;;;;;;;;;;22.68;34.88;98983.53;4410519;32;20041;-86
2022/04/25 10:33:49;;;;;;;;;;;;;;;22.56;34.69;98988.50;4412245;32;19994;-85
2022/04/25 10:36:49;;;;;;;;;;;;;;;22.60;34.96;98990.97;4401476;32;19978;-86
2022/04/25 10:39:19;;;;;;;;;;;;;;;22.18;34.70;98994.66;4389395;32;20000;-87
2022/04/25 10:44:44;;;;;;;;;;;;;;;21.95;37.37;98992.12;4416300;32;20622;-85
2022/04/25 10:47:14;;;;;;;;;;;;;;;21.43;37.54;99003.13;4411697;32;19990;-85
2022/04/25 10:49:45;;;;;;;;;;;;;;;21.66;34.45;98996.88;4414534;32;20026;-87
2022/04/25 10:52:31;;;;;;;;;;;;;;;20.21;37.79;99000.84;4413710;32;20046;-87
2022/04/25 10:55:21;;;;;;;;;;;;;;;19.87;38.90;99007.28;4416416;32;19985;-84
2022/04/25 10:58:04;;;;;;;;;;;;;;;20.55;38.63;99015.38;4415528;32;19971;-82
2022/04/25 11:00:40;;;;;;;;;;;;;;;21.31;36.88;99012.38;4401366;32;20039;-85
2022/04/25 11:03:07;;;;;;;;;;;;;;;21.91;34.47;99011.63;4401461;32;20035;-85
2022/04/25 11:05:35;;;;;;;;;;;;;;;21.92;35.82;99013.34;4402686;32;20477;-84
2022/04/25 11:08:21;;;;;;;;;;;;;;;21.53;37.38;99022.03;4415071;32;19977;-84
2022/04/25 11:10:57;;;;;;;;;;;;;;;20.97;38.60;99033.91;4412373;32;19994;-84
2022/04/25 11:13:34;;;;;;;;;;;;;;;21.90;37.97;99017.84;4415306;32;20025;-84
2022/04/25 11:16:18;;;;;;;;;;;;;;;21.79;37.92;99018.28;4414897;32;20034;-84
2022/04/25 11:18:49;;;;;;;;;;;;;;;22.15;36.04;99025.53;4416763;32;19988;-83
2022/04/25 11:21:16;;;;;;;;;;;;;;;21.52;37.26;99030.84;4415126;32;20307;-85
2022/04/25 11:23:43;;;;;;;;;;;;;;;21.86;36.08;99039.94;4415139;32;20027;-84
2022/04/25 11:26:20;;;;;;;;;;;;;;;21.72;35.64;99037.91;4416339;32;20009;-85
2022/04/25 11:29:04;;;;;;;;;;;;;;;21.26;36.84;99040.66;4407684;32;19985;-84
2022/04/25 11:31:31;;;;;;;;;;;;;;;21.40;36.26;99036.62;4405765;32;20080;-84
2022/04/25 11:34:02;;;;;;;;;;;;;;;21.10;38.03;99039.56;4416575;32;20013;-83
2022/04/25 11:36:30;;;;;;;;;;;;;;;21.70;34.48;99040.63;4415663;32;19973;-83
2022/04/25 11:41:44;;;;;;;;;;;;;;;21.74;34.75;99047.47;4410960;32;20757;-81
2022/04/25 11:44:12;;;;;;;;;;;;;;;21.77;37.23;99057.88;4427182;32;19977;-83
2022/04/25 11:46:39;;;;;;;;;;;;;;;22.05;34.99;99061.97;4427145;32;19986;-85
2022/04/25 11:49:07;;;;;;;;;;;;;;;22.20;34.85;99061.31;4424796;32;20025;-85
2022/04/25 11:51:37;;;;;;;;;;;;;;;22.13;34.75;99065.13;4416141;32;19996;-84
2022/04/25 11:54:05;;;;;;;;;;;;;;;22.33;33.80;99068.69;4415580;32;20042;-85
2022/04/25 11:56:37;;;;;;;;;;;;;;;21.90;35.02;99062.63;4413383;32;19985;-85
2022/04/25 11:59:08;;;;;;;;;;;;;;;21.76;36.60;99066.72;4410698;32;20000;-85
2022/04/25 12:01:38;;;;;;;;;;;;;;;21.57;36.02;99061.34;4403002;32;20008;-84
2022/04/25 12:04:26;;;;;;;;;;;;;;;21.92;33.73;99066.91;4406522;32;20029;-83
2022/04/25 12:06:54;;;;;;;;;;;;;;;21.38;35.22;99065.66;4407192;32;19968;-92
2022/04/25 12:17:49;;;;;;;;;;;;;;;21.42;35.16;99066.38;4423520;32;19989;-91
2022/04/25 12:20:17;;;;;;;;;;;;;;;21.36;35.84;99068.34;4426305;32;20013;-92
2022/04/25 12:22:57;;;;;;;;;;;;;;;21.60;34.13;99078.78;4408843;32;20295;-89
2022/04/25 12:25:25;;;;;;;;;;;;;;;22.31;31.93;99065.28;4409884;32;19981;-96
2022/04/25 12:28:04;;;;;;;;;;;;;;;21.99;33.62;99072.78;4411305;32;19998;-94
2022/04/25 12:30:44;;;;;;;;;;;;;;;21.47;36.08;99077.56;4407357;32;19978;-92
2022/04/25 12:33:12;;;;;;;;;;;;;;;22.07;35.85;99070.66;4411538;32;19994;-87
2022/04/25 12:35:39;;;;;;;;;;;;;;;22.50;32.31;99068.81;4407864;32;19990;-89
2022/04/25 12:38:07;;;;;;;;;;;;;;;22.36;32.76;99073.81;4406198;32;19982;-89
2022/04/25 12:40:52;;;;;;;;;;;;;;;22.58;31.65;99077.22;4411343;32;20262;-89
2022/04/25 12:43:58;;;;;;;;;;;;;;;22.50;32.17;99071.44;4410657;32;19987;-90
2022/04/25 12:46:37;;;;;;;;;;;;;;;22.66;31.33;99072.47;4387098;32;20001;-88
2022/04/25 12:49:04;;;;;;;;;;;;;;;22.94;31.75;99076.47;4386849;32;20603;-90
2022/04/25 12:51:35;;;;;;;;;;;;;;;22.88;32.48;99068.84;4390746;32;20335;-87
2022/04/25 12:54:03;;;;;;;;;;;;;;;22.85;32.67;99068.97;4257200;32;5090994;-90
2022/04/25 12:56:31;;;;;;;;;;;;;;;23.09;30.73;99091.59;4411752;32;19986;-91
2022/04/25 12:58:58;;;;;;;;;;;;;;;23.14;29.48;99086.97;4414868;32;20024;-91
2022/04/25 13:01:32;;;;;;;;;;;;;;;22.53;31.63;99084.50;4408304;32;19990;-89
2022/04/25 13:04:06;;;;;;;;;;;;;;;22.62;31.42;99094.63;4420198;32;20005;-90
2022/04/25 13:06:35;;;;;;;;;;;;;;;22.34;32.38;99088.88;4417091;32;20389;-89
2022/04/25 13:09:03;;;;;;;;;;;;;;;22.22;33.12;99101.66;4424569;32;19974;-88
2022/04/25 13:11:49;;;;;;;;;;;;;;;22.38;31.92;99095.72;4421289;32;19982;-89
2022/04/25 13:14:17;;;;;;;;;;;;;;;22.20;30.85;99092.94;4411630;32;19997;-90
2022/04/25 13:16:44;;;;;;;;;;;;;;;22.24;32.54;99084.00;4410954;32;20044;-91
2022/04/25 13:19:11;;;;;;;;;;;;;;;22.34;31.36;99084.47;4418119;32;20398;-94
2022/04/25 13:21:41;;;;;;;;;;;;;;;22.51;30.96;99081.06;4422382;32;19962;-95
2022/04/25 13:24:08;;;;;;;;;;;;;;;22.56;30.55;99081.72;4421969;32;19961;-92
2022/04/25 13:26:34;;;;;;;;;;;;;;;22.78;30.23;99084.22;4418162;32;19996;-88
2022/04/25 13:29:02;;;;;;;;;;;;;;;22.36;31.81;99097.56;4417050;32;19992;-96
2022/04/25 13:31:29;;;;;;;;;;;;;;;22.36;31.66;99093.13;4421672;32;20604;-96
2022/04/25 13:33:57;;;;;;;;;;;;;;;22.68;30.27;99083.78;4421031;32;19971;-91